createdAt,value
2023-04-26T00:00:09.432Z,94547.77
2023-04-26T00:03:00.254Z,94546.40
2023-04-26T00:05:29.798Z,94558.02
2023-04-26T00:07:58.446Z,94560.98
2023-04-26T00:10:26.987Z,94558.23
2023-04-26T00:12:55.375Z,94555.11
2023-04-26T00:15:23.649Z,94560.98
2023-04-26T00:17:51.777Z,94562.33
2023-04-26T00:20:20.111Z,94569.11
2023-04-26T00:22:48.209Z,94573.42
2023-04-26T00:25:16.454Z,94575.86
2023-04-26T00:27:44.837Z,94583.64
2023-04-26T00:30:13.823Z,94581.91
2023-04-26T00:32:41.895Z,94589.64
2023-04-26T00:35:10.676Z,94591.54
2023-04-26T00:37:38.764Z,94593.61
2023-04-26T00:40:07.536Z,94591.48
2023-04-26T00:42:36.018Z,94596.48
2023-04-26T00:45:05.512Z,94594.77
2023-04-26T00:47:34.134Z,94593.08
2023-04-26T00:50:02.419Z,94594.48
2023-04-26T00:52:32.123Z,94596.91
2023-04-26T00:55:00.574Z,94598.80
2023-04-26T00:57:28.940Z,94597.69
2023-04-26T00:59:57.131Z,94593.93
2023-04-26T01:02:27.193Z,94600.98
2023-04-26T01:04:56.036Z,94600.89
2023-04-26T01:07:24.408Z,94607.86
2023-04-26T01:09:52.931Z,94611.93
2023-04-26T01:12:24.542Z,94610.46
2023-04-26T01:14:53.631Z,94610.83
2023-04-26T01:17:21.728Z,94612.41
2023-04-26T01:19:51.152Z,94607.84
2023-04-26T01:22:19.276Z,94614.77
2023-04-26T01:24:51.416Z,94616.33
2023-04-26T01:27:19.573Z,94617.61
2023-04-26T01:29:49.324Z,94613.79
2023-04-26T01:32:17.636Z,94621.85
2023-04-26T01:34:45.775Z,94620.45
2023-04-26T01:37:13.852Z,94619.05
2023-04-26T01:39:42.258Z,94619.62
2023-04-26T01:42:10.297Z,94623.27
2023-04-26T01:44:38.581Z,94622.98
2023-04-26T01:47:06.744Z,94628.52
2023-04-26T01:49:35.127Z,94625.40
2023-04-26T01:52:03.921Z,94625.43
2023-04-26T01:54:32.198Z,94628.59
2023-04-26T01:57:02.810Z,94623.53
2023-04-26T01:59:31.191Z,94624.20
2023-04-26T02:02:00.386Z,94628.51
2023-04-26T02:04:29.058Z,94626.97
2023-04-26T02:06:57.571Z,94623.80
2023-04-26T02:09:25.735Z,94627.84
2023-04-26T02:11:54.201Z,94625.41
2023-04-26T02:14:22.411Z,94622.75
2023-04-26T02:16:52.037Z,94625.19
2023-04-26T02:19:21.121Z,94624.47
2023-04-26T02:21:57.331Z,94629.17
2023-04-26T02:24:26.226Z,94624.84
2023-04-26T02:26:54.929Z,94631.13
2023-04-26T02:29:36.342Z,94630.43
2023-04-26T02:32:11.358Z,94633.45
2023-04-26T02:34:39.393Z,94638.52
2023-04-26T02:37:07.785Z,94634.86
2023-04-26T02:39:36.363Z,94635.38
2023-04-26T02:42:05.171Z,94639.38
2023-04-26T02:44:33.450Z,94638.33
2023-04-26T02:47:02.226Z,94640.60
2023-04-26T02:49:31.117Z,94642.10
2023-04-26T02:51:59.313Z,94642.66
2023-04-26T02:54:27.772Z,94646.48
2023-04-26T02:56:55.846Z,94647.34
2023-04-26T02:59:24.121Z,94652.02
2023-04-26T03:01:52.342Z,94653.23
2023-04-26T03:04:21.005Z,94655.02
2023-04-26T03:06:49.252Z,94653.48
2023-04-26T03:09:18.055Z,94655.40
2023-04-26T03:11:48.215Z,94659.59
2023-04-26T03:14:18.288Z,94660.86
2023-04-26T03:16:48.553Z,94661.22
2023-04-26T03:19:16.992Z,94665.23
2023-04-26T03:21:45.565Z,94669.42
2023-04-26T03:24:13.960Z,94674.12
2023-04-26T03:26:42.234Z,94677.23
2023-04-26T03:29:10.810Z,94682.12
2023-04-26T03:31:39.407Z,94685.41
2023-04-26T03:34:08.284Z,94686.27
2023-04-26T03:36:36.558Z,94692.35
2023-04-26T03:39:06.407Z,94693.05
2023-04-26T03:41:37.106Z,94695.86
2023-04-26T03:44:06.913Z,94699.89
2023-04-26T03:46:35.006Z,94699.71
2023-04-26T03:49:03.097Z,94705.66
2023-04-26T03:51:31.478Z,94705.20
2023-04-26T03:53:59.926Z,94705.60
2023-04-26T03:56:28.290Z,94711.73
2023-04-26T03:58:57.087Z,94716.63
2023-04-26T04:01:26.171Z,94715.80
2023-04-26T04:03:55.339Z,94721.27
2023-04-26T04:06:23.648Z,94725.50
2023-04-26T04:08:52.000Z,94725.48
2023-04-26T04:11:20.643Z,94726.19
2023-04-26T04:13:49.189Z,94732.08
2023-04-26T04:16:17.366Z,94737.81
2023-04-26T04:18:45.662Z,94737.29
2023-04-26T04:21:13.614Z,94743.86
2023-04-26T04:23:42.611Z,94750.31
2023-04-26T04:26:12.819Z,94747.68
2023-04-26T04:28:42.239Z,94749.55
2023-04-26T04:31:10.347Z,94758.19
2023-04-26T04:33:39.091Z,94758.84
2023-04-26T04:36:08.432Z,94761.63
2023-04-26T04:38:37.582Z,94766.52
2023-04-26T04:41:08.681Z,94769.96
2023-04-26T04:43:37.510Z,94773.22
2023-04-26T04:46:05.821Z,94776.87
2023-04-26T04:48:35.807Z,94779.71
2023-04-26T04:51:04.015Z,94779.88
2023-04-26T04:53:32.358Z,94788.10
2023-04-26T04:56:00.945Z,94793.02
2023-04-26T04:58:29.223Z,94793.21
2023-04-26T05:00:58.245Z,94793.73
2023-04-26T05:03:30.203Z,94794.61
2023-04-26T05:05:58.523Z,94793.81
2023-04-26T05:08:26.639Z,94796.79
2023-04-26T05:10:56.965Z,94798.38
2023-04-26T05:13:25.425Z,94802.39
2023-04-26T05:15:54.086Z,94803.52
2023-04-26T05:18:22.909Z,94806.30
2023-04-26T05:20:51.292Z,94810.52
2023-04-26T05:23:19.660Z,94811.59
2023-04-26T05:25:48.134Z,94816.11
2023-04-26T05:28:34.966Z,94818.00
2023-04-26T05:31:15.034Z,94822.36
2023-04-26T05:34:04.139Z,94821.47
2023-04-26T05:36:42.211Z,94823.35
2023-04-26T05:39:10.828Z,94818.95
2023-04-26T05:41:39.436Z,94821.86
2023-04-26T05:44:07.532Z,94823.68
2023-04-26T05:46:36.157Z,94828.31
2023-04-26T05:49:04.269Z,94827.91
2023-04-26T05:51:32.961Z,94831.70
2023-04-26T05:54:01.161Z,94839.55
2023-04-26T05:56:29.518Z,94837.79
2023-04-26T05:58:58.236Z,94840.70
2023-04-26T06:01:26.665Z,94846.76
2023-04-26T06:03:57.973Z,94848.48
2023-04-26T06:06:28.554Z,94849.66
2023-04-26T06:08:57.034Z,94848.80
2023-04-26T06:11:25.136Z,94854.07
2023-04-26T06:13:55.191Z,94853.38
2023-04-26T06:16:23.641Z,94855.08
2023-04-26T06:18:51.957Z,94860.14
2023-04-26T06:21:20.172Z,94862.20
2023-04-26T06:23:48.845Z,94865.35
2023-04-26T06:26:18.729Z,94868.70
2023-04-26T06:28:47.107Z,94873.23
2023-04-26T06:31:15.310Z,94876.75
2023-04-26T06:33:43.443Z,94881.15
2023-04-26T06:36:13.395Z,94885.54
2023-04-26T06:38:42.490Z,94884.48
2023-04-26T06:41:10.660Z,94889.38
2023-04-26T06:43:38.986Z,94889.54
2023-04-26T06:46:09.220Z,94897.21
2023-04-26T06:48:37.321Z,94899.46
2023-04-26T06:51:09.006Z,94898.76
2023-04-26T06:53:37.483Z,94902.21
2023-04-26T06:56:05.830Z,94902.50
2023-04-26T06:58:33.766Z,94908.20
2023-04-26T07:01:02.419Z,94910.97
2023-04-26T07:03:31.079Z,94906.70
2023-04-26T07:05:59.285Z,94912.23
2023-04-26T07:08:27.429Z,94916.06
2023-04-26T07:10:55.624Z,94914.99
2023-04-26T07:13:23.782Z,94921.25
2023-04-26T07:23:39.405Z,94929.85
2023-04-26T07:26:07.695Z,94928.87
2023-04-26T07:28:35.877Z,94927.83
2023-04-26T07:31:07.072Z,94930.79
2023-04-26T07:33:37.143Z,94935.84
2023-04-26T07:36:06.218Z,94937.80
2023-04-26T07:38:34.505Z,94946.91
2023-04-26T07:41:02.607Z,94950.05
2023-04-26T07:43:31.676Z,94955.32
2023-04-26T07:46:02.816Z,94956.38
2023-04-26T07:48:30.980Z,94960.76
2023-04-26T07:51:15.716Z,94960.27
2023-04-26T07:53:43.910Z,94960.48
2023-04-26T07:56:11.937Z,94960.65
2023-04-26T07:58:40.159Z,94966.38
2023-04-26T08:01:08.932Z,94967.06
2023-04-26T08:03:37.721Z,94971.06
2023-04-26T08:06:06.812Z,94974.36
2023-04-26T08:08:40.657Z,94972.02
2023-04-26T08:11:10.043Z,94975.45
2023-04-26T08:13:38.236Z,94976.20
2023-04-26T08:16:06.697Z,94974.35
2023-04-26T08:18:34.809Z,94974.88
2023-04-26T08:21:02.932Z,94971.55
2023-04-26T08:23:37.888Z,94969.20
2023-04-26T08:26:06.686Z,94969.15
2023-04-26T08:28:35.944Z,94973.66
2023-04-26T08:31:05.011Z,94975.56
2023-04-26T08:33:33.136Z,94976.30
2023-04-26T08:36:02.283Z,94974.12
2023-04-26T08:38:30.905Z,94973.88
2023-04-26T08:41:02.868Z,94974.98
2023-04-26T08:43:31.344Z,94979.73
2023-04-26T08:46:01.065Z,94977.47
2023-04-26T08:48:34.409Z,94974.49
2023-04-26T08:51:03.126Z,94978.29
2023-04-26T08:53:32.250Z,94984.69
2023-04-26T08:56:02.443Z,94986.48
2023-04-26T08:58:32.515Z,94985.56
2023-04-26T09:01:03.532Z,94990.04
2023-04-26T09:03:31.825Z,94991.15
2023-04-26T09:06:03.863Z,94988.65
2023-04-26T09:08:37.040Z,94994.70
2023-04-26T09:11:05.313Z,94995.77
2023-04-26T09:13:33.428Z,94996.05
2023-04-26T09:16:03.513Z,94993.40
2023-04-26T09:18:34.126Z,94991.39
2023-04-26T09:21:08.239Z,94991.13
2023-04-26T09:23:36.881Z,94992.46
2023-04-26T09:26:21.844Z,94996.02
2023-04-26T09:28:50.961Z,94997.94
2023-04-26T09:31:39.018Z,95002.23
2023-04-26T09:34:08.845Z,95002.09
2023-04-26T09:36:47.919Z,95004.09
2023-04-26T09:39:31.788Z,95003.88
2023-04-26T09:42:00.550Z,95005.77
2023-04-26T09:44:30.182Z,95005.92
2023-04-26T09:47:00.177Z,95010.52
2023-04-26T09:49:50.596Z,95005.85
2023-04-26T09:52:19.881Z,95002.02
2023-04-26T09:54:52.213Z,95003.65
2023-04-26T09:57:22.500Z,94998.51
2023-04-26T09:59:55.322Z,95000.97
2023-04-26T10:02:28.165Z,94994.08
2023-04-26T10:04:57.453Z,94985.48
2023-04-26T10:07:26.404Z,94984.78
2023-04-26T10:09:55.814Z,94982.19
2023-04-26T10:12:24.196Z,94992.93
2023-04-26T10:14:52.321Z,94992.77
2023-04-26T10:17:23.015Z,94993.85
2023-04-26T10:19:59.534Z,94990.09
2023-04-26T10:22:31.514Z,94994.18
2023-04-26T10:25:00.168Z,94993.59
2023-04-26T10:27:49.009Z,94996.10
2023-04-26T10:30:19.374Z,94997.42
2023-04-26T10:32:56.583Z,94993.11
2023-04-26T10:35:30.705Z,94999.52
2023-04-26T10:38:02.098Z,94997.24
2023-04-26T10:40:36.409Z,95002.27
2023-04-26T10:43:28.244Z,95004.71
2023-04-26T10:45:57.133Z,95006.27
2023-04-26T10:48:28.332Z,95006.05
2023-04-26T10:51:02.693Z,95004.27
2023-04-26T10:53:46.350Z,95011.65
2023-04-26T10:56:23.811Z,95010.86
2023-04-26T10:59:28.550Z,95008.71
2023-04-26T11:02:00.881Z,95008.77
2023-04-26T11:05:04.701Z,95004.43
2023-04-26T11:07:39.595Z,95001.84
2023-04-26T11:10:22.566Z,94991.36
2023-04-26T11:13:01.518Z,94987.75
2023-04-26T11:15:32.018Z,94988.11
2023-04-26T11:18:04.786Z,94989.79
2023-04-26T11:20:34.038Z,94991.77
2023-04-26T11:23:02.743Z,94996.91
2023-04-26T11:25:31.455Z,94997.74
2023-04-26T11:28:02.208Z,94998.39
2023-04-26T11:30:32.139Z,94993.70
2023-04-26T11:33:01.569Z,94997.54
2023-04-26T11:35:30.937Z,95002.38
2023-04-26T11:38:02.839Z,95000.50
2023-04-26T11:40:32.812Z,95002.57
2023-04-26T11:43:11.721Z,95005.98
2023-04-26T11:45:39.883Z,95005.63
2023-04-26T11:48:11.332Z,95009.63
2023-04-26T11:50:40.485Z,95013.52
2023-04-26T11:53:09.156Z,95017.34
2023-04-26T11:55:37.599Z,95021.58
2023-04-26T11:58:12.390Z,95017.70
2023-04-26T12:01:01.906Z,95012.92
2023-04-26T12:03:37.933Z,95013.72
2023-04-26T12:06:06.976Z,95009.80
2023-04-26T12:08:35.012Z,95010.75
2023-04-26T12:11:03.390Z,95009.47
2023-04-26T12:13:32.801Z,95016.30
2023-04-26T12:16:18.532Z,95016.08
2023-04-26T12:18:54.794Z,95011.61
2023-04-26T12:21:24.520Z,95018.78
2023-04-26T12:23:52.937Z,95015.64
2023-04-26T12:26:21.218Z,95018.21
2023-04-26T12:28:49.406Z,95015.48
2023-04-26T12:31:17.482Z,95013.20
2023-04-26T12:33:46.043Z,95010.61
2023-04-26T12:36:14.386Z,95013.48
2023-04-26T12:38:43.003Z,95011.08
2023-04-26T12:41:11.524Z,95008.20
2023-04-26T12:43:39.673Z,95015.75
2023-04-26T12:46:07.791Z,95017.09
2023-04-26T12:48:36.356Z,95024.24
2023-04-26T12:51:04.627Z,95025.95
2023-04-26T12:53:32.706Z,95021.86
2023-04-26T12:56:01.102Z,95020.00
2023-04-26T12:58:29.221Z,95017.84
2023-04-26T13:00:57.348Z,95021.72
2023-04-26T13:03:25.675Z,95023.45
2023-04-26T13:05:54.480Z,95024.17
2023-04-26T13:08:24.437Z,95028.98
2023-04-26T13:10:52.595Z,95033.73
2023-04-26T13:13:26.172Z,95034.30
2023-04-26T13:15:57.506Z,95037.84
2023-04-26T13:18:25.594Z,95037.95
2023-04-26T13:20:54.300Z,95041.73
2023-04-26T13:23:22.380Z,95045.05
2023-04-26T13:25:50.432Z,95044.01
2023-04-26T13:28:18.594Z,95045.09
2023-04-26T13:30:46.740Z,95043.57
2023-04-26T13:33:14.934Z,95048.11
2023-04-26T13:35:43.140Z,95047.39
2023-04-26T13:38:12.178Z,95048.81
2023-04-26T13:40:40.746Z,95047.77
2023-04-26T13:43:08.925Z,95050.57
2023-04-26T13:45:37.010Z,95054.74
2023-04-26T13:48:05.208Z,95054.95
2023-04-26T13:50:35.309Z,95059.64
2023-04-26T13:53:04.499Z,95061.39
2023-04-26T13:55:32.565Z,95063.00
2023-04-26T13:58:01.006Z,95061.81
2023-04-26T14:00:29.194Z,95066.73
2023-04-26T14:02:57.414Z,95071.97
2023-04-26T14:05:25.813Z,95075.34
2023-04-26T14:07:55.356Z,95072.25
2023-04-26T14:10:23.751Z,95075.41
2023-04-26T14:12:52.176Z,95074.47
2023-04-26T14:15:20.473Z,95078.93
2023-04-26T14:17:49.040Z,95079.38
2023-04-26T14:20:17.400Z,95089.77
2023-04-26T14:22:46.348Z,95089.13
2023-04-26T14:25:14.291Z,95095.14
2023-04-26T14:27:43.525Z,95101.50
2023-04-26T14:30:12.086Z,95100.15
2023-04-26T14:32:41.525Z,95099.48
2023-04-26T14:35:09.710Z,95099.21
2023-04-26T14:37:37.834Z,95099.41
2023-04-26T14:40:08.140Z,95107.57
2023-04-26T14:42:36.350Z,95112.96
2023-04-26T14:45:05.006Z,95112.94
2023-04-26T14:47:33.051Z,95112.04
2023-04-26T14:50:01.221Z,95114.04
2023-04-26T14:52:29.302Z,95121.32
2023-04-26T14:54:58.766Z,95120.84
2023-04-26T14:57:26.985Z,95120.65
2023-04-26T14:59:55.126Z,95119.24
2023-04-26T15:02:23.351Z,95124.67
2023-04-26T15:04:51.662Z,95123.97
2023-04-26T15:07:31.417Z,95126.60
2023-04-26T15:10:00.800Z,95125.17
2023-04-26T15:12:29.248Z,95123.23
2023-04-26T15:14:57.628Z,95127.75
2023-04-26T15:17:25.806Z,95133.30
2023-04-26T15:19:54.070Z,95133.39
2023-04-26T15:22:22.300Z,95135.61
2023-04-26T15:24:51.254Z,95135.02
2023-04-26T15:27:19.396Z,95134.98
2023-04-26T15:29:47.530Z,95138.44
2023-04-26T15:32:15.746Z,95138.11
2023-04-26T15:34:45.356Z,95134.09
2023-04-26T15:37:13.592Z,95133.56
2023-04-26T15:39:41.695Z,95137.04
2023-04-26T15:42:09.829Z,95138.30
2023-04-26T15:44:37.848Z,95140.73
2023-04-26T15:47:06.098Z,95140.33
2023-04-26T15:49:34.236Z,95144.08
2023-04-26T15:52:02.341Z,95142.96
2023-04-26T15:54:30.394Z,95142.92
2023-04-26T15:56:58.434Z,95150.30
2023-04-26T15:59:26.974Z,95152.98
2023-04-26T16:01:55.051Z,95154.87
2023-04-26T16:04:23.316Z,95156.63
2023-04-26T16:06:51.711Z,95156.94
2023-04-26T16:11:51.496Z,95158.34
2023-04-26T16:14:19.711Z,95158.94
2023-04-26T16:16:47.763Z,95162.58
2023-04-26T16:19:17.536Z,95162.58
2023-04-26T16:21:45.715Z,95163.90
2023-04-26T16:24:13.952Z,95169.71
2023-04-26T16:26:42.658Z,95170.09
2023-04-26T16:29:10.813Z,95172.54
2023-04-26T16:31:39.074Z,95174.49
2023-04-26T16:34:07.246Z,95177.81
2023-04-26T16:36:35.690Z,95179.09
2023-04-26T16:39:03.838Z,95179.84
2023-04-26T16:41:31.979Z,95181.48
2023-04-26T16:43:59.964Z,95180.70
2023-04-26T16:46:28.261Z,95185.67
2023-04-26T16:48:56.601Z,95186.31
2023-04-26T16:51:24.984Z,95182.43
2023-04-26T16:53:53.027Z,95187.13
2023-04-26T16:56:21.131Z,95189.87
2023-04-26T16:58:49.513Z,95196.67
2023-04-26T17:01:17.518Z,95196.27
2023-04-26T17:03:46.736Z,95199.03
2023-04-26T17:06:15.050Z,95204.91
2023-04-26T17:08:43.445Z,95203.47
2023-04-26T17:11:17.941Z,95210.20
2023-04-26T17:13:46.272Z,95216.80
2023-04-26T17:16:14.482Z,95220.00
2023-04-26T17:18:42.698Z,95222.87
2023-04-26T17:21:10.826Z,95225.74
2023-04-26T17:23:38.991Z,95226.90
2023-04-26T17:26:07.188Z,95229.92
2023-04-26T17:28:36.006Z,95235.24
2023-04-26T17:31:04.161Z,95236.19
2023-04-26T17:33:32.729Z,95236.77
2023-04-26T17:36:01.882Z,95242.21
2023-04-26T17:38:30.153Z,95245.56
2023-04-26T17:40:59.795Z,95249.29
2023-04-26T17:43:27.890Z,95257.17
2023-04-26T17:45:56.278Z,95260.16
2023-04-26T17:48:24.659Z,95264.56
2023-04-26T17:50:53.695Z,95270.02
2023-04-26T17:53:22.687Z,95270.23
2023-04-26T17:55:51.989Z,95277.23
2023-04-26T17:58:20.065Z,95282.65
2023-04-26T18:00:51.320Z,95291.55
2023-04-26T18:03:20.620Z,95292.98
2023-04-26T18:05:49.405Z,95301.17
2023-04-26T18:08:17.540Z,95298.57
2023-04-26T18:10:47.846Z,95296.83
2023-04-26T18:13:17.257Z,95300.67
2023-04-26T18:15:45.604Z,95303.46
2023-04-26T18:18:13.882Z,95307.80
2023-04-26T18:20:42.263Z,95303.98
2023-04-26T18:23:10.851Z,95304.70
2023-04-26T18:25:39.101Z,95306.78
2023-04-26T18:28:08.827Z,95309.40
2023-04-26T18:30:36.916Z,95314.98
2023-04-26T18:33:05.225Z,95321.61
2023-04-26T18:35:34.778Z,95325.08
2023-04-26T18:38:03.881Z,95326.65
2023-04-26T18:40:33.030Z,95327.34
2023-04-26T18:43:03.317Z,95335.34
2023-04-26T18:45:31.588Z,95338.47
2023-04-26T18:48:00.070Z,95337.76
2023-04-26T18:50:28.411Z,95346.08
2023-04-26T18:52:56.899Z,95351.28
2023-04-26T18:55:26.124Z,95355.96
2023-04-26T18:57:54.643Z,95356.43
2023-04-26T19:00:24.970Z,95353.09
2023-04-26T19:02:53.572Z,95358.61
2023-04-26T19:05:24.389Z,95356.88
2023-04-26T19:07:53.503Z,95353.21
2023-04-26T19:10:24.489Z,95354.59
2023-04-26T19:12:52.601Z,95354.55
2023-04-26T19:15:21.032Z,95358.52
2023-04-26T19:17:51.972Z,95361.78
2023-04-26T19:20:20.500Z,95367.47
2023-04-26T19:22:48.759Z,95371.40
2023-04-26T19:25:23.140Z,95374.27
2023-04-26T19:27:52.467Z,95375.26
2023-04-26T19:30:20.569Z,95381.52
2023-04-26T19:32:49.164Z,95384.79
2023-04-26T19:35:17.281Z,95387.02
2023-04-26T19:37:45.606Z,95390.00
2023-04-26T19:40:13.712Z,95391.21
2023-04-26T19:42:41.883Z,95389.52
2023-04-26T19:45:10.671Z,95394.46
2023-04-26T19:47:42.053Z,95396.29
2023-04-26T19:50:11.184Z,95395.06
2023-04-26T19:52:39.408Z,95393.76
2023-04-26T19:55:07.823Z,95394.52
2023-04-26T19:57:36.384Z,95396.45
2023-04-26T20:00:07.567Z,95394.42
2023-04-26T20:02:35.905Z,95392.24
2023-04-26T20:05:05.212Z,95389.02
2023-04-26T20:07:33.269Z,95385.09
2023-04-26T20:10:01.371Z,95386.48
2023-04-26T20:12:30.417Z,95386.67
2023-04-26T20:14:58.600Z,95389.81
2023-04-26T20:17:26.708Z,95384.55
2023-04-26T20:19:54.827Z,95389.92
2023-04-26T20:22:22.987Z,95390.45
2023-04-26T20:24:51.048Z,95390.27
2023-04-26T20:27:19.232Z,95390.42
2023-04-26T20:29:47.476Z,95388.48
2023-04-26T20:32:15.807Z,95390.40
2023-04-26T20:34:44.232Z,95397.89
2023-04-26T20:37:12.772Z,95398.43
2023-04-26T20:39:40.844Z,95397.41
2023-04-26T20:42:09.790Z,95395.85
2023-04-26T20:44:38.159Z,95398.46
2023-04-26T20:47:06.284Z,95399.69
2023-04-26T20:49:34.326Z,95397.42
2023-04-26T20:52:02.367Z,95401.23
2023-04-26T20:54:30.483Z,95402.45
2023-04-26T20:56:58.995Z,95403.85
2023-04-26T20:59:27.433Z,95406.82
2023-04-26T21:01:55.678Z,95406.83
2023-04-26T21:04:24.212Z,95409.26
2023-04-26T21:06:52.747Z,95415.36
2023-04-26T21:09:21.670Z,95418.49
2023-04-26T21:11:49.728Z,95413.11
2023-04-26T21:14:17.698Z,95414.52
2023-04-26T21:16:46.117Z,95421.14
2023-04-26T21:19:14.266Z,95422.85
2023-04-26T21:21:42.310Z,95424.94
2023-04-26T21:24:10.574Z,95426.86
2023-04-26T21:26:38.724Z,95427.94
2023-04-26T21:29:07.884Z,95430.20
2023-04-26T21:31:36.510Z,95430.92
2023-04-26T21:34:04.589Z,95431.63
2023-04-26T21:36:32.712Z,95434.94
2023-04-26T21:39:01.436Z,95436.35
2023-04-26T21:41:29.740Z,95441.39
2023-04-26T21:43:58.823Z,95442.29
2023-04-26T21:46:27.009Z,95441.45
2023-04-26T21:48:55.183Z,95446.86
2023-04-26T21:51:23.555Z,95448.45
2023-04-26T21:53:51.884Z,95457.35
2023-04-26T21:56:19.934Z,95458.59
2023-04-26T21:58:48.023Z,95453.52
2023-04-26T22:01:16.829Z,95457.73
2023-04-26T22:03:45.093Z,95457.03
2023-04-26T22:06:13.284Z,95460.70
2023-04-26T22:08:41.409Z,95461.59
2023-04-26T22:11:09.420Z,95462.11
2023-04-26T22:13:37.494Z,95458.77
2023-04-26T22:16:06.404Z,95463.11
2023-04-26T22:18:35.506Z,95465.00
2023-04-26T22:21:04.025Z,95462.21
2023-04-26T22:23:32.288Z,95465.84
2023-04-26T22:26:00.832Z,95468.25
2023-04-26T22:28:28.948Z,95466.63
2023-04-26T22:30:57.161Z,95465.22
2023-04-26T22:33:25.355Z,95469.90
2023-04-26T22:35:57.849Z,95466.94
2023-04-26T22:38:26.405Z,95467.78
2023-04-26T22:40:54.615Z,95465.84
2023-04-26T22:43:23.816Z,95466.86
2023-04-26T22:45:52.026Z,95470.95
2023-04-26T22:48:20.201Z,95469.70
2023-04-26T22:50:50.307Z,95469.85
2023-04-26T22:53:18.409Z,95472.40
2023-04-26T22:55:46.590Z,95468.86
2023-04-26T22:58:14.782Z,95468.64
2023-04-26T23:00:42.948Z,95472.95
2023-04-26T23:03:11.200Z,95474.11
2023-04-26T23:05:39.380Z,95475.08
2023-04-26T23:08:07.557Z,95472.75
2023-04-26T23:10:35.576Z,95473.39
2023-04-26T23:13:05.040Z,95474.54
2023-04-26T23:15:33.115Z,95478.97
2023-04-26T23:18:01.249Z,95483.94
2023-04-26T23:20:29.568Z,95486.46
2023-04-26T23:22:57.780Z,95488.29
2023-04-26T23:25:26.234Z,95486.27
2023-04-26T23:27:54.222Z,95484.77
2023-04-26T23:30:22.383Z,95485.89
2023-04-26T23:32:50.776Z,95486.83
2023-04-26T23:35:18.975Z,95484.33
2023-04-26T23:37:47.128Z,95484.23
2023-04-26T23:40:15.313Z,95481.35
2023-04-26T23:42:43.276Z,95478.04
2023-04-26T23:45:12.070Z,95478.35
2023-04-26T23:47:40.250Z,95475.34
2023-04-26T23:50:09.046Z,95476.47
2023-04-26T23:52:37.300Z,95480.23
2023-04-26T23:55:06.800Z,95479.64
2023-04-26T23:57:34.905Z,95482.52
